sensor_id;sensor_type;location;lat;lon;timestamp;temperature;humidity
5027;DHT22;2532;52.480;13.354;2024-01-15T00:01:15;4.20;99.90
5027;DHT22;2532;52.480;13.354;2024-01-15T00:03:42;4.20;99.90
5027;DHT22;2532;52.480;13.354;2024-01-15T00:06:09;4.20;99.90
5027;DHT22;2532;52.480;13.354;2024-01-15T00:08:37;4.10;99.90
5027;DHT22;2532;52.480;13.354;2024-01-15T00:11:04;4.10;99.90
5027;DHT22;2532;52.480;13.354;2024-01-15T00:13:31;4.00;99.90
5027;DHT22;2532;52.480;13.354;2024-01-15T00:15:58;4.00;99.90
5027;DHT22;2532;52.480;13.354;2024-01-15T00:18:26;4.00;99.90
5027;DHT22;2532;52.480;13.354;2024-01-15T00:20:53;4.00;99.90
5027;DHT22;2532;52.480;13.354;2024-01-15T00:23:21;3.90;99.90
5027;DHT22;2532;52.480;13.354;2024-01-15T00:25:48;3.90;99.90
5027;DHT22;2532;52.480;13.354;2024-01-15T00:28:15;3.90;99.90
5027;DHT22;2532;52.480;13.354;2024-01-15T00:30:42;3.90;99.90
5027;DHT22;2532;52.480;13.354;2024-01-15T00:33:09;3.90;99.90
5027;DHT22;2532;52.480;13.354;2024-01-15T00:35:39;3.80;99.90
5027;DHT22;2532;52.480;13.354;2024-01-15T00:38:06;3.80;99.90
5027;DHT22;2532;52.480;13.354;2024-01-15T00:40:33;3.80;99.90
5027;DHT22;2532;52.480;13.354;2024-01-15T00:43:00;3.80;99.90
5027;DHT22;2532;52.480;13.354;2024-01-15T00:45:27;3.80;99.90
5027;DHT22;2532;52.480;13.354;2024-01-15T00:47:54;3.80;99.90
5027;DHT22;2532;52.480;13.354;2024-01-15T00:50:22;3.90;99.90
5027;DHT22;2532;52.480;13.354;2024-01-15T00:52:50;3.90;99.90
5027;DHT22;2532;52.480;13.354;2024-01-15T00:55:17;4.00;99.90
5027;DHT22;2532;52.480;13.354;2024-01-15T00:57:44;3.90;99.90
5027;DHT22;2532;52.480;13.354;2024-01-15T01:00:12;3.90;99.90
5027;DHT22;2532;52.480;13.354;2024-01-15T01:02:39;3.90;99.90
5027;DHT22;2532;52.480;13.354;2024-01-15T01:05:07;3.90;99.90
5027;DHT22;2532;52.480;13.354;2024-01-15T01:07:34;3.90;99.90
5027;DHT22;2532;52.480;13.354;2024-01-15T01:10:03;3.90;99.90
5027;DHT22;2532;52.480;13.354;2024-01-15T01:12:30;3.90;99.90
5027;DHT22;2532;52.480;13.354;2024-01-15T01:14:57;3.90;99.90
5027;DHT22;2532;52.480;13.354;2024-01-15T01:17:25;3.90;99.90
5027;DHT22;2532;52.480;13.354;2024-01-15T01:19:52;3.90;99.90
5027;DHT22;2532;52.480;13.354;2024-01-15T01:22:19;3.90;99.90
5027;DHT22;2532;52.480;13.354;2024-01-15T01:24:46;3.90;99.90
5027;DHT22;2532;52.480;13.354;2024-01-15T01:27:14;3.90;99.90
5027;DHT22;2532;52.480;13.354;2024-01-15T01:29:41;3.80;99.90
5027;DHT22;2532;52.480;13.354;2024-01-15T01:32:08;3.80;99.90
5027;DHT22;2532;52.480;13.354;2024-01-15T01:34:40;4.00;99.90
5027;DHT22;2532;52.480;13.354;2024-01-15T01:37:08;3.80;99.90
5027;DHT22;2532;52.480;13.354;2024-01-15T01:39:35;3.80;99.90
5027;DHT22;2532;52.480;13.354;2024-01-15T01:42:02;3.80;99.90
5027;DHT22;2532;52.480;13.354;2024-01-15T01:44:30;3.70;99.90
5027;DHT22;2532;52.480;13.354;2024-01-15T01:46:57;3.70;99.90
5027;DHT22;2532;52.480;13.354;2024-01-15T01:49:26;3.60;99.90
5027;DHT22;2532;52.480;13.354;2024-01-15T01:51:53;3.60;99.90
5027;DHT22;2532;52.480;13.354;2024-01-15T01:54:22;3.50;99.90
5027;DHT22;2532;52.480;13.354;2024-01-15T01:56:51;3.50;99.90
5027;DHT22;2532;52.480;13.354;2024-01-15T01:59:18;3.50;99.90
5027;DHT22;2532;52.480;13.354;2024-01-15T02:01:47;3.40;99.90
5027;DHT22;2532;52.480;13.354;2024-01-15T02:04:16;3.50;99.90
5027;DHT22;2532;52.480;13.354;2024-01-15T02:06:43;3.50;99.90
5027;DHT22;2532;52.480;13.354;2024-01-15T02:09:11;3.50;99.90
5027;DHT22;2532;52.480;13.354;2024-01-15T02:11:40;3.40;99.90
5027;DHT22;2532;52.480;13.354;2024-01-15T02:14:09;3.40;99.90
5027;DHT22;2532;52.480;13.354;2024-01-15T02:16:36;3.40;99.90
5027;DHT22;2532;52.480;13.354;2024-01-15T02:19:04;3.40;99.90
5027;DHT22;2532;52.480;13.354;2024-01-15T02:21:31;3.40;99.90
5027;DHT22;2532;52.480;13.354;2024-01-15T02:24:00;3.40;99.90
5027;DHT22;2532;52.480;13.354;2024-01-15T02:26:28;3.40;99.90
5027;DHT22;2532;52.480;13.354;2024-01-15T02:28:55;3.50;99.90
5027;DHT22;2532;52.480;13.354;2024-01-15T02:31:22;3.40;99.90
5027;DHT22;2532;52.480;13.354;2024-01-15T02:33:49;3.40;99.90
5027;DHT22;2532;52.480;13.354;2024-01-15T02:36:16;3.40;99.90
5027;DHT22;2532;52.480;13.354;2024-01-15T02:38:43;3.40;99.90
5027;DHT22;2532;52.480;13.354;2024-01-15T02:41:11;3.40;99.90
5027;DHT22;2532;52.480;13.354;2024-01-15T02:43:39;3.50;99.90
5027;DHT22;2532;52.480;13.354;2024-01-15T02:46:07;3.50;99.90
5027;DHT22;2532;52.480;13.354;2024-01-15T02:48:34;3.50;99.90
5027;DHT22;2532;52.480;13.354;2024-01-15T02:51:01;3.50;99.90
5027;DHT22;2532;52.480;13.354;2024-01-15T02:53:28;3.50;99.90
5027;DHT22;2532;52.480;13.354;2024-01-15T02:55:55;3.50;99.90
5027;DHT22;2532;52.480;13.354;2024-01-15T02:58:24;3.50;99.90
5027;DHT22;2532;52.480;13.354;2024-01-15T03:00:51;3.60;99.90
5027;DHT22;2532;52.480;13.354;2024-01-15T03:03:18;3.60;99.90
5027;DHT22;2532;52.480;13.354;2024-01-15T03:05:44;3.60;99.90
5027;DHT22;2532;52.480;13.354;2024-01-15T03:08:12;3.60;99.90
5027;DHT22;2532;52.480;13.354;2024-01-15T03:10:39;3.60;99.90
5027;DHT22;2532;52.480;13.354;2024-01-15T03:13:06;3.60;99.90
5027;DHT22;2532;52.480;13.354;2024-01-15T03:15:35;3.60;99.90
5027;DHT22;2532;52.480;13.354;2024-01-15T03:18:02;3.60;99.90
5027;DHT22;2532;52.480;13.354;2024-01-15T03:20:31;3.60;99.90
5027;DHT22;2532;52.480;13.354;2024-01-15T03:22:58;3.60;99.70
5027;DHT22;2532;52.480;13.354;2024-01-15T03:25:25;3.60;99.80
5027;DHT22;2532;52.480;13.354;2024-01-15T03:27:52;3.60;99.70
5027;DHT22;2532;52.480;13.354;2024-01-15T03:30:19;3.50;99.60
5027;DHT22;2532;52.480;13.354;2024-01-15T03:32:47;3.50;99.60
5027;DHT22;2532;52.480;13.354;2024-01-15T03:35:15;3.50;99.50
5027;DHT22;2532;52.480;13.354;2024-01-15T03:37:42;3.50;99.60
5027;DHT22;2532;52.480;13.354;2024-01-15T03:40:10;3.50;99.60
5027;DHT22;2532;52.480;13.354;2024-01-15T03:42:37;3.50;99.60
5027;DHT22;2532;52.480;13.354;2024-01-15T03:45:05;3.50;99.40
5027;DHT22;2532;52.480;13.354;2024-01-15T03:47:32;3.50;99.40
5027;DHT22;2532;52.480;13.354;2024-01-15T03:50:00;3.50;99.40
5027;DHT22;2532;52.480;13.354;2024-01-15T03:52:28;3.50;99.40
5027;DHT22;2532;52.480;13.354;2024-01-15T03:54:55;3.50;99.40
5027;DHT22;2532;52.480;13.354;2024-01-15T03:57:22;3.50;99.30
5027;DHT22;2532;52.480;13.354;2024-01-15T03:59:49;3.50;99.30
5027;DHT22;2532;52.480;13.354;2024-01-15T04:02:16;3.60;99.40
5027;DHT22;2532;52.480;13.354;2024-01-15T04:04:44;3.50;99.10
5027;DHT22;2532;52.480;13.354;2024-01-15T04:07:12;3.50;99.20
5027;DHT22;2532;52.480;13.354;2024-01-15T04:09:39;3.50;99.20
5027;DHT22;2532;52.480;13.354;2024-01-15T04:12:06;3.60;99.30
5027;DHT22;2532;52.480;13.354;2024-01-15T04:14:33;3.60;99.10
5027;DHT22;2532;52.480;13.354;2024-01-15T04:17:00;3.60;99.10
5027;DHT22;2532;52.480;13.354;2024-01-15T04:19:27;3.60;99.10
5027;DHT22;2532;52.480;13.354;2024-01-15T04:21:54;3.60;99.10
5027;DHT22;2532;52.480;13.354;2024-01-15T04:24:23;3.60;99.00
5027;DHT22;2532;52.480;13.354;2024-01-15T04:26:50;3.60;99.00
5027;DHT22;2532;52.480;13.354;2024-01-15T04:29:18;3.60;99.00
5027;DHT22;2532;52.480;13.354;2024-01-15T04:31:45;3.60;98.90
5027;DHT22;2532;52.480;13.354;2024-01-15T04:34:12;3.60;98.90
5027;DHT22;2532;52.480;13.354;2024-01-15T04:36:39;3.50;98.80
5027;DHT22;2532;52.480;13.354;2024-01-15T04:39:07;3.50;98.80
5027;DHT22;2532;52.480;13.354;2024-01-15T04:41:35;3.50;99.10
5027;DHT22;2532;52.480;13.354;2024-01-15T04:44:02;3.50;98.80
5027;DHT22;2532;52.480;13.354;2024-01-15T04:46:29;3.60;98.70
5027;DHT22;2532;52.480;13.354;2024-01-15T04:48:57;3.50;98.60
5027;DHT22;2532;52.480;13.354;2024-01-15T04:51:24;3.60;98.60
5027;DHT22;2532;52.480;13.354;2024-01-15T04:53:51;3.60;98.50
5027;DHT22;2532;52.480;13.354;2024-01-15T04:56:18;3.60;98.60
5027;DHT22;2532;52.480;13.354;2024-01-15T04:58:47;3.60;98.50
5027;DHT22;2532;52.480;13.354;2024-01-15T05:01:15;3.70;98.40
5027;DHT22;2532;52.480;13.354;2024-01-15T05:03:42;3.60;98.20
5027;DHT22;2532;52.480;13.354;2024-01-15T05:06:10;3.60;98.20
5027;DHT22;2532;52.480;13.354;2024-01-15T05:08:37;3.70;98.20
5027;DHT22;2532;52.480;13.354;2024-01-15T05:11:04;3.70;98.20
5027;DHT22;2532;52.480;13.354;2024-01-15T05:13:31;3.70;98.20
5027;DHT22;2532;52.480;13.354;2024-01-15T05:16:00;3.70;98.40
5027;DHT22;2532;52.480;13.354;2024-01-15T05:18:27;3.70;98.60
5027;DHT22;2532;52.480;13.354;2024-01-15T05:20:54;3.70;98.80
5027;DHT22;2532;52.480;13.354;2024-01-15T05:23:21;3.70;98.90
5027;DHT22;2532;52.480;13.354;2024-01-15T05:25:48;3.70;99.00
5027;DHT22;2532;52.480;13.354;2024-01-15T05:28:15;3.70;98.90
5027;DHT22;2532;52.480;13.354;2024-01-15T05:30:43;3.70;98.80
5027;DHT22;2532;52.480;13.354;2024-01-15T05:33:12;3.70;98.70
5027;DHT22;2532;52.480;13.354;2024-01-15T05:35:39;3.70;98.60
5027;DHT22;2532;52.480;13.354;2024-01-15T05:38:06;3.80;98.70
5027;DHT22;2532;52.480;13.354;2024-01-15T05:40:33;3.80;98.60
5027;DHT22;2532;52.480;13.354;2024-01-15T05:43:00;3.80;98.50
5027;DHT22;2532;52.480;13.354;2024-01-15T05:45:27;3.80;98.50
5027;DHT22;2532;52.480;13.354;2024-01-15T05:47:54;3.80;98.40
5027;DHT22;2532;52.480;13.354;2024-01-15T05:50:23;3.90;98.50
5027;DHT22;2532;52.480;13.354;2024-01-15T05:52:49;3.90;98.40
5027;DHT22;2532;52.480;13.354;2024-01-15T05:55:19;3.90;98.40
5027;DHT22;2532;52.480;13.354;2024-01-15T05:57:46;3.90;98.40
5027;DHT22;2532;52.480;13.354;2024-01-15T06:00:14;3.90;98.60
5027;DHT22;2532;52.480;13.354;2024-01-15T06:02:41;3.80;98.90
5027;DHT22;2532;52.480;13.354;2024-01-15T06:05:08;3.80;99.00
5027;DHT22;2532;52.480;13.354;2024-01-15T06:07:37;3.80;99.10
5027;DHT22;2532;52.480;13.354;2024-01-15T06:10:05;3.70;99.20
5027;DHT22;2532;52.480;13.354;2024-01-15T06:12:32;3.70;99.30
5027;DHT22;2532;52.480;13.354;2024-01-15T06:14:59;3.70;99.30
5027;DHT22;2532;52.480;13.354;2024-01-15T06:17:26;3.60;99.30
5027;DHT22;2532;52.480;13.354;2024-01-15T06:19:53;3.60;99.20
5027;DHT22;2532;52.480;13.354;2024-01-15T06:22:20;3.60;99.20
5027;DHT22;2532;52.480;13.354;2024-01-15T06:24:48;3.70;99.20
5027;DHT22;2532;52.480;13.354;2024-01-15T06:27:15;3.70;99.10
5027;DHT22;2532;52.480;13.354;2024-01-15T06:29:45;3.70;99.00
5027;DHT22;2532;52.480;13.354;2024-01-15T06:32:13;3.70;99.20
5027;DHT22;2532;52.480;13.354;2024-01-15T06:34:40;3.70;99.40
5027;DHT22;2532;52.480;13.354;2024-01-15T06:37:07;3.70;99.60
5027;DHT22;2532;52.480;13.354;2024-01-15T06:39:34;3.70;99.60
5027;DHT22;2532;52.480;13.354;2024-01-15T06:42:03;3.60;99.60
5027;DHT22;2532;52.480;13.354;2024-01-15T06:44:30;3.70;99.70
5027;DHT22;2532;52.480;13.354;2024-01-15T06:46:57;3.70;99.70
5027;DHT22;2532;52.480;13.354;2024-01-15T06:49:28;3.70;99.50
5027;DHT22;2532;52.480;13.354;2024-01-15T06:51:55;3.70;99.50
5027;DHT22;2532;52.480;13.354;2024-01-15T06:54:22;3.70;99.50
5027;DHT22;2532;52.480;13.354;2024-01-15T06:56:52;3.70;99.50
5027;DHT22;2532;52.480;13.354;2024-01-15T06:59:21;3.70;99.40
5027;DHT22;2532;52.480;13.354;2024-01-15T07:01:48;3.80;99.30
5027;DHT22;2532;52.480;13.354;2024-01-15T07:04:15;3.70;99.10
5027;DHT22;2532;52.480;13.354;2024-01-15T07:06:42;3.80;99.10
5027;DHT22;2532;52.480;13.354;2024-01-15T07:09:09;3.80;99.20
5027;DHT22;2532;52.480;13.354;2024-01-15T07:11:36;3.90;99.10
5027;DHT22;2532;52.480;13.354;2024-01-15T07:14:04;3.90;99.00
5027;DHT22;2532;52.480;13.354;2024-01-15T07:16:32;3.90;98.80
5027;DHT22;2532;52.480;13.354;2024-01-15T07:18:59;3.90;98.50
5027;DHT22;2532;52.480;13.354;2024-01-15T07:21:26;4.00;98.50
5027;DHT22;2532;52.480;13.354;2024-01-15T07:23:53;4.00;98.40
5027;DHT22;2532;52.480;13.354;2024-01-15T07:26:20;4.00;98.30
5027;DHT22;2532;52.480;13.354;2024-01-15T07:28:47;4.00;98.20
5027;DHT22;2532;52.480;13.354;2024-01-15T07:31:15;4.00;98.00
5027;DHT22;2532;52.480;13.354;2024-01-15T07:33:44;4.00;98.00
5027;DHT22;2532;52.480;13.354;2024-01-15T07:36:11;4.10;98.00
5027;DHT22;2532;52.480;13.354;2024-01-15T07:38:41;4.00;97.70
5027;DHT22;2532;52.480;13.354;2024-01-15T07:41:08;4.00;97.70
5027;DHT22;2532;52.480;13.354;2024-01-15T07:43:36;4.00;97.70
5027;DHT22;2532;52.480;13.354;2024-01-15T07:46:03;4.10;97.90
5027;DHT22;2532;52.480;13.354;2024-01-15T07:48:34;4.10;97.90
5027;DHT22;2532;52.480;13.354;2024-01-15T07:51:07;4.20;97.90
5027;DHT22;2532;52.480;13.354;2024-01-15T07:53:34;4.20;97.70
5027;DHT22;2532;52.480;13.354;2024-01-15T07:56:02;4.20;97.70
5027;DHT22;2532;52.480;13.354;2024-01-15T07:58:29;4.20;97.70
5027;DHT22;2532;52.480;13.354;2024-01-15T08:00:56;4.20;97.80
5027;DHT22;2532;52.480;13.354;2024-01-15T08:03:23;4.20;97.70
5027;DHT22;2532;52.480;13.354;2024-01-15T08:05:50;4.30;97.70
5027;DHT22;2532;52.480;13.354;2024-01-15T08:08:29;4.30;97.60
5027;DHT22;2532;52.480;13.354;2024-01-15T08:10:57;4.30;97.60
5027;DHT22;2532;52.480;13.354;2024-01-15T08:13:26;4.30;97.60
5027;DHT22;2532;52.480;13.354;2024-01-15T08:15:53;4.30;97.50
5027;DHT22;2532;52.480;13.354;2024-01-15T08:18:20;4.20;97.60
5027;DHT22;2532;52.480;13.354;2024-01-15T08:20:48;4.20;97.70
5027;DHT22;2532;52.480;13.354;2024-01-15T08:23:16;4.20;97.70
5027;DHT22;2532;52.480;13.354;2024-01-15T08:25:47;4.20;97.60
5027;DHT22;2532;52.480;13.354;2024-01-15T08:28:16;4.20;97.70
5027;DHT22;2532;52.480;13.354;2024-01-15T08:30:43;4.20;97.90
5027;DHT22;2532;52.480;13.354;2024-01-15T08:33:10;4.20;97.90
5027;DHT22;2532;52.480;13.354;2024-01-15T08:35:38;4.20;97.80
5027;DHT22;2532;52.480;13.354;2024-01-15T08:38:05;4.20;97.70
5027;DHT22;2532;52.480;13.354;2024-01-15T08:40:32;4.20;97.80
5027;DHT22;2532;52.480;13.354;2024-01-15T08:43:01;4.20;97.70
5027;DHT22;2532;52.480;13.354;2024-01-15T08:45:28;4.20;97.60
5027;DHT22;2532;52.480;13.354;2024-01-15T08:47:55;4.30;97.60
5027;DHT22;2532;52.480;13.354;2024-01-15T08:50:22;4.20;97.50
5027;DHT22;2532;52.480;13.354;2024-01-15T08:52:49;4.20;97.40
5027;DHT22;2532;52.480;13.354;2024-01-15T08:55:16;4.30;97.50
5027;DHT22;2532;52.480;13.354;2024-01-15T08:57:44;4.30;97.50
5027;DHT22;2532;52.480;13.354;2024-01-15T09:00:14;4.30;97.30
5027;DHT22;2532;52.480;13.354;2024-01-15T09:02:41;4.30;97.40
5027;DHT22;2532;52.480;13.354;2024-01-15T09:05:09;4.40;97.40
5027;DHT22;2532;52.480;13.354;2024-01-15T09:07:36;4.40;97.40
5027;DHT22;2532;52.480;13.354;2024-01-15T09:10:03;4.40;97.50
5027;DHT22;2532;52.480;13.354;2024-01-15T09:12:31;4.30;97.50
5027;DHT22;2532;52.480;13.354;2024-01-15T09:14:58;4.30;97.60
5027;DHT22;2532;52.480;13.354;2024-01-15T09:17:26;4.20;97.60
5027;DHT22;2532;52.480;13.354;2024-01-15T09:19:54;4.30;97.70
5027;DHT22;2532;52.480;13.354;2024-01-15T09:22:21;4.30;97.80
5027;DHT22;2532;52.480;13.354;2024-01-15T09:24:48;4.20;97.80
5027;DHT22;2532;52.480;13.354;2024-01-15T09:27:15;4.30;97.90
5027;DHT22;2532;52.480;13.354;2024-01-15T09:29:43;4.20;97.90
5027;DHT22;2532;52.480;13.354;2024-01-15T09:32:11;4.30;98.00
5027;DHT22;2532;52.480;13.354;2024-01-15T09:34:43;4.30;97.90
5027;DHT22;2532;52.480;13.354;2024-01-15T09:37:10;4.30;97.80
5027;DHT22;2532;52.480;13.354;2024-01-15T09:39:38;4.30;97.90
5027;DHT22;2532;52.480;13.354;2024-01-15T09:42:05;4.40;97.80
5027;DHT22;2532;52.480;13.354;2024-01-15T09:44:33;4.40;97.70
5027;DHT22;2532;52.480;13.354;2024-01-15T09:47:00;4.40;97.90
5027;DHT22;2532;52.480;13.354;2024-01-15T09:49:28;4.40;97.80
5027;DHT22;2532;52.480;13.354;2024-01-15T09:51:57;4.40;97.70
5027;DHT22;2532;52.480;13.354;2024-01-15T09:54:25;4.40;97.90
5027;DHT22;2532;52.480;13.354;2024-01-15T09:56:53;4.50;97.90
5027;DHT22;2532;52.480;13.354;2024-01-15T09:59:22;4.50;97.80
5027;DHT22;2532;52.480;13.354;2024-01-15T10:01:52;4.50;97.60
5027;DHT22;2532;52.480;13.354;2024-01-15T10:04:20;4.50;97.70
5027;DHT22;2532;52.480;13.354;2024-01-15T10:06:51;4.50;97.80
5027;DHT22;2532;52.480;13.354;2024-01-15T10:09:19;4.60;97.80
5027;DHT22;2532;52.480;13.354;2024-01-15T10:11:49;4.60;97.70
5027;DHT22;2532;52.480;13.354;2024-01-15T10:14:16;4.70;97.70
5027;DHT22;2532;52.480;13.354;2024-01-15T10:16:44;4.70;97.50
5027;DHT22;2532;52.480;13.354;2024-01-15T10:19:11;4.60;97.40
5027;DHT22;2532;52.480;13.354;2024-01-15T10:21:38;4.70;97.60
5027;DHT22;2532;52.480;13.354;2024-01-15T10:24:06;4.60;97.40
5027;DHT22;2532;52.480;13.354;2024-01-15T10:26:36;4.60;97.40
5027;DHT22;2532;52.480;13.354;2024-01-15T10:29:06;4.60;97.60
5027;DHT22;2532;52.480;13.354;2024-01-15T10:31:33;4.60;97.60
5027;DHT22;2532;52.480;13.354;2024-01-15T10:34:10;4.60;97.50
5027;DHT22;2532;52.480;13.354;2024-01-15T10:36:39;4.60;97.50
5027;DHT22;2532;52.480;13.354;2024-01-15T10:39:07;4.60;97.50
5027;DHT22;2532;52.480;13.354;2024-01-15T10:41:35;4.60;97.50
5027;DHT22;2532;52.480;13.354;2024-01-15T10:44:03;4.60;97.40
5027;DHT22;2532;52.480;13.354;2024-01-15T10:46:31;4.60;97.40
5027;DHT22;2532;52.480;13.354;2024-01-15T10:48:58;4.70;97.50
5027;DHT22;2532;52.480;13.354;2024-01-15T10:51:25;4.70;97.10
5027;DHT22;2532;52.480;13.354;2024-01-15T10:53:53;4.70;97.30
5027;DHT22;2532;52.480;13.354;2024-01-15T10:56:22;4.70;97.10
5027;DHT22;2532;52.480;13.354;2024-01-15T10:58:50;4.70;97.10
5027;DHT22;2532;52.480;13.354;2024-01-15T11:01:17;4.70;97.00
5027;DHT22;2532;52.480;13.354;2024-01-15T11:03:45;4.70;96.90
5027;DHT22;2532;52.480;13.354;2024-01-15T11:06:17;4.70;97.10
5027;DHT22;2532;52.480;13.354;2024-01-15T11:08:45;4.80;96.90
5027;DHT22;2532;52.480;13.354;2024-01-15T11:11:13;4.80;96.80
5027;DHT22;2532;52.480;13.354;2024-01-15T11:13:40;4.80;96.90
5027;DHT22;2532;52.480;13.354;2024-01-15T11:16:12;4.80;96.80
5027;DHT22;2532;52.480;13.354;2024-01-15T11:18:40;4.80;96.90
5027;DHT22;2532;52.480;13.354;2024-01-15T11:21:21;4.90;97.00
5027;DHT22;2532;52.480;13.354;2024-01-15T11:23:49;4.90;97.00
5027;DHT22;2532;52.480;13.354;2024-01-15T11:26:33;4.90;97.00
5027;DHT22;2532;52.480;13.354;2024-01-15T11:29:01;4.90;97.10
5027;DHT22;2532;52.480;13.354;2024-01-15T11:31:58;4.90;97.10
5027;DHT22;2532;52.480;13.354;2024-01-15T11:34:55;4.90;97.30
5027;DHT22;2532;52.480;13.354;2024-01-15T11:37:25;4.90;97.40
5027;DHT22;2532;52.480;13.354;2024-01-15T11:39:53;4.80;97.60
5027;DHT22;2532;52.480;13.354;2024-01-15T11:42:21;4.80;97.70
5027;DHT22;2532;52.480;13.354;2024-01-15T11:44:49;4.80;97.80
5027;DHT22;2532;52.480;13.354;2024-01-15T11:50:11;4.60;98.10
5027;DHT22;2532;52.480;13.354;2024-01-15T11:52:39;4.60;98.30
5027;DHT22;2532;52.480;13.354;2024-01-15T11:55:19;4.50;98.50
5027;DHT22;2532;52.480;13.354;2024-01-15T11:57:50;4.40;98.30
5027;DHT22;2532;52.480;13.354;2024-01-15T12:00:18;4.30;98.60
5027;DHT22;2532;52.480;13.354;2024-01-15T12:02:49;4.30;98.90
5027;DHT22;2532;52.480;13.354;2024-01-15T12:05:18;4.40;98.90
5027;DHT22;2532;52.480;13.354;2024-01-15T12:07:47;4.30;98.80
5027;DHT22;2532;52.480;13.354;2024-01-15T12:10:16;4.30;98.90
5027;DHT22;2532;52.480;13.354;2024-01-15T12:12:53;4.30;98.90
5027;DHT22;2532;52.480;13.354;2024-01-15T12:15:23;4.30;98.80
5027;DHT22;2532;52.480;13.354;2024-01-15T12:17:52;4.30;98.80
5027;DHT22;2532;52.480;13.354;2024-01-15T12:20:19;4.20;98.80
5027;DHT22;2532;52.480;13.354;2024-01-15T12:22:46;4.20;98.80
5027;DHT22;2532;52.480;13.354;2024-01-15T12:25:13;4.20;99.00
5027;DHT22;2532;52.480;13.354;2024-01-15T12:27:40;4.10;98.90
5027;DHT22;2532;52.480;13.354;2024-01-15T12:30:11;4.10;98.90
5027;DHT22;2532;52.480;13.354;2024-01-15T12:32:38;4.10;98.90
5027;DHT22;2532;52.480;13.354;2024-01-15T12:35:07;4.20;99.00
5027;DHT22;2532;52.480;13.354;2024-01-15T12:37:35;4.20;98.90
5027;DHT22;2532;52.480;13.354;2024-01-15T12:40:03;4.20;98.60
5027;DHT22;2532;52.480;13.354;2024-01-15T12:42:32;4.20;99.00
5027;DHT22;2532;52.480;13.354;2024-01-15T12:45:00;4.20;98.80
5027;DHT22;2532;52.480;13.354;2024-01-15T12:47:29;4.20;98.90
5027;DHT22;2532;52.480;13.354;2024-01-15T12:49:57;4.10;99.20
5027;DHT22;2532;52.480;13.354;2024-01-15T12:52:29;4.10;99.60
5027;DHT22;2532;52.480;13.354;2024-01-15T12:54:56;4.10;99.90
5027;DHT22;2532;52.480;13.354;2024-01-15T12:57:23;4.10;99.90
5027;DHT22;2532;52.480;13.354;2024-01-15T12:59:50;4.10;99.90
5027;DHT22;2532;52.480;13.354;2024-01-15T13:02:18;4.00;99.90
5027;DHT22;2532;52.480;13.354;2024-01-15T13:04:45;4.00;99.90
5027;DHT22;2532;52.480;13.354;2024-01-15T13:07:13;4.00;99.90
5027;DHT22;2532;52.480;13.354;2024-01-15T13:09:41;4.00;99.90
5027;DHT22;2532;52.480;13.354;2024-01-15T13:12:09;4.00;99.90
5027;DHT22;2532;52.480;13.354;2024-01-15T13:14:37;4.00;99.90
5027;DHT22;2532;52.480;13.354;2024-01-15T13:17:04;4.00;99.90
5027;DHT22;2532;52.480;13.354;2024-01-15T13:19:32;4.00;99.90
5027;DHT22;2532;52.480;13.354;2024-01-15T13:21:59;4.10;99.90
5027;DHT22;2532;52.480;13.354;2024-01-15T13:24:27;4.10;99.90
5027;DHT22;2532;52.480;13.354;2024-01-15T13:26:55;4.10;99.90
5027;DHT22;2532;52.480;13.354;2024-01-15T13:29:22;4.10;99.90
5027;DHT22;2532;52.480;13.354;2024-01-15T13:31:50;4.10;99.70
5027;DHT22;2532;52.480;13.354;2024-01-15T13:34:17;4.10;99.80
5027;DHT22;2532;52.480;13.354;2024-01-15T13:36:44;4.10;99.70
5027;DHT22;2532;52.480;13.354;2024-01-15T13:39:11;4.10;99.60
5027;DHT22;2532;52.480;13.354;2024-01-15T13:41:39;4.00;99.60
5027;DHT22;2532;52.480;13.354;2024-01-15T13:44:07;4.00;99.70
5027;DHT22;2532;52.480;13.354;2024-01-15T13:46:36;4.00;99.70
5027;DHT22;2532;52.480;13.354;2024-01-15T13:49:03;3.90;99.70
5027;DHT22;2532;52.480;13.354;2024-01-15T13:51:31;3.90;99.80
5027;DHT22;2532;52.480;13.354;2024-01-15T13:53:59;3.90;99.80
5027;DHT22;2532;52.480;13.354;2024-01-15T13:56:26;3.90;99.80
5027;DHT22;2532;52.480;13.354;2024-01-15T13:58:57;3.90;99.80
5027;DHT22;2532;52.480;13.354;2024-01-15T14:01:27;4.00;99.80
5027;DHT22;2532;52.480;13.354;2024-01-15T14:03:54;4.00;99.50
5027;DHT22;2532;52.480;13.354;2024-01-15T14:06:21;4.00;99.50
5027;DHT22;2532;52.480;13.354;2024-01-15T14:08:49;4.00;99.40
5027;DHT22;2532;52.480;13.354;2024-01-15T14:11:17;3.90;99.40
5027;DHT22;2532;52.480;13.354;2024-01-15T14:13:44;4.00;99.60
5027;DHT22;2532;52.480;13.354;2024-01-15T14:16:11;4.00;99.70
5027;DHT22;2532;52.480;13.354;2024-01-15T14:18:40;4.10;99.70
5027;DHT22;2532;52.480;13.354;2024-01-15T14:21:07;4.10;99.70
5027;DHT22;2532;52.480;13.354;2024-01-15T14:23:34;4.10;99.50
5027;DHT22;2532;52.480;13.354;2024-01-15T14:26:01;4.10;99.60
5027;DHT22;2532;52.480;13.354;2024-01-15T14:28:30;4.10;99.00
5027;DHT22;2532;52.480;13.354;2024-01-15T14:30:57;3.90;99.00
5027;DHT22;2532;52.480;13.354;2024-01-15T14:33:26;3.90;99.20
5027;DHT22;2532;52.480;13.354;2024-01-15T14:35:54;3.80;99.40
5027;DHT22;2532;52.480;13.354;2024-01-15T14:38:21;3.80;99.40
5027;DHT22;2532;52.480;13.354;2024-01-15T14:40:48;3.80;99.50
5027;DHT22;2532;52.480;13.354;2024-01-15T14:43:16;3.80;99.30
5027;DHT22;2532;52.480;13.354;2024-01-15T14:45:43;3.70;99.20
5027;DHT22;2532;52.480;13.354;2024-01-15T14:48:10;3.60;99.30
5027;DHT22;2532;52.480;13.354;2024-01-15T14:50:39;3.60;99.40
5027;DHT22;2532;52.480;13.354;2024-01-15T14:53:07;3.60;99.50
5027;DHT22;2532;52.480;13.354;2024-01-15T14:55:34;3.60;99.50
5027;DHT22;2532;52.480;13.354;2024-01-15T14:58:01;3.60;99.50
5027;DHT22;2532;52.480;13.354;2024-01-15T15:00:29;3.60;99.50
5027;DHT22;2532;52.480;13.354;2024-01-15T15:02:56;3.60;99.50
5027;DHT22;2532;52.480;13.354;2024-01-15T15:05:23;3.60;99.40
5027;DHT22;2532;52.480;13.354;2024-01-15T15:07:51;3.70;99.50
5027;DHT22;2532;52.480;13.354;2024-01-15T15:10:19;3.70;99.40
5027;DHT22;2532;52.480;13.354;2024-01-15T15:12:46;3.70;99.30
5027;DHT22;2532;52.480;13.354;2024-01-15T15:15:14;3.70;99.20
5027;DHT22;2532;52.480;13.354;2024-01-15T15:17:42;3.70;99.20
5027;DHT22;2532;52.480;13.354;2024-01-15T15:20:10;3.80;99.30
5027;DHT22;2532;52.480;13.354;2024-01-15T15:22:37;3.80;99.20
5027;DHT22;2532;52.480;13.354;2024-01-15T15:25:05;3.80;99.10
5027;DHT22;2532;52.480;13.354;2024-01-15T15:27:36;3.70;99.20
5027;DHT22;2532;52.480;13.354;2024-01-15T15:30:04;3.70;99.20
5027;DHT22;2532;52.480;13.354;2024-01-15T15:32:31;3.70;99.30
5027;DHT22;2532;52.480;13.354;2024-01-15T15:34:58;3.80;99.40
5027;DHT22;2532;52.480;13.354;2024-01-15T15:37:25;3.70;99.40
5027;DHT22;2532;52.480;13.354;2024-01-15T15:39:52;3.70;99.50
5027;DHT22;2532;52.480;13.354;2024-01-15T15:42:20;3.70;99.70
5027;DHT22;2532;52.480;13.354;2024-01-15T15:44:51;3.70;99.90
5027;DHT22;2532;52.480;13.354;2024-01-15T15:47:20;3.70;99.90
5027;DHT22;2532;52.480;13.354;2024-01-15T15:49:54;3.60;99.90
5027;DHT22;2532;52.480;13.354;2024-01-15T15:52:21;3.60;99.90
5027;DHT22;2532;52.480;13.354;2024-01-15T15:54:49;3.50;99.90
5027;DHT22;2532;52.480;13.354;2024-01-15T15:57:16;3.50;99.90
5027;DHT22;2532;52.480;13.354;2024-01-15T15:59:43;3.50;99.90
5027;DHT22;2532;52.480;13.354;2024-01-15T16:02:12;3.50;99.90
5027;DHT22;2532;52.480;13.354;2024-01-15T16:04:39;3.50;99.90
5027;DHT22;2532;52.480;13.354;2024-01-15T16:07:07;3.50;99.90
5027;DHT22;2532;52.480;13.354;2024-01-15T16:09:35;3.50;99.90